sensor_id;sensor_type;location;lat;lon;timestamp;pressure;altitude;pressure_sealevel;temperature
68012;BMP180;54794;48.348;7.878;2022-08-24T00:01:53;99140.00;;;24.50
68012;BMP180;54794;48.348;7.878;2022-08-24T00:04:20;99131.00;;;24.50
68012;BMP180;54794;48.348;7.878;2022-08-24T00:06:47;99126.00;;;24.40
68012;BMP180;54794;48.348;7.878;2022-08-24T00:09:16;99127.00;;;24.40
68012;BMP180;54794;48.348;7.878;2022-08-24T00:11:43;99139.00;;;24.40
68012;BMP180;54794;48.348;7.878;2022-08-24T00:14:10;99132.00;;;24.40
68012;BMP180;54794;48.348;7.878;2022-08-24T00:16:38;99129.00;;;24.40
68012;BMP180;54794;48.348;7.878;2022-08-24T00:19:05;99140.00;;;24.40
68012;BMP180;54794;48.348;7.878;2022-08-24T00:21:32;99135.00;;;24.40
68012;BMP180;54794;48.348;7.878;2022-08-24T00:23:59;99135.00;;;24.50
68012;BMP180;54794;48.348;7.878;2022-08-24T00:26:29;99138.00;;;24.50
68012;BMP180;54794;48.348;7.878;2022-08-24T00:28:57;99124.00;;;24.40
68012;BMP180;54794;48.348;7.878;2022-08-24T00:31:25;99128.00;;;24.50
68012;BMP180;54794;48.348;7.878;2022-08-24T00:33:53;99129.00;;;24.50
68012;BMP180;54794;48.348;7.878;2022-08-24T00:36:34;99125.00;;;24.50
68012;BMP180;54794;48.348;7.878;2022-08-24T00:39:03;99130.00;;;24.50
68012;BMP180;54794;48.348;7.878;2022-08-24T00:41:30;99126.00;;;24.50
68012;BMP180;54794;48.348;7.878;2022-08-24T00:44:01;99130.00;;;24.40
68012;BMP180;54794;48.348;7.878;2022-08-24T00:46:50;99128.00;;;24.40
68012;BMP180;54794;48.348;7.878;2022-08-24T00:52:26;99124.00;;;24.40
68012;BMP180;54794;48.348;7.878;2022-08-24T00:55:00;99137.00;;;24.40
68012;BMP180;54794;48.348;7.878;2022-08-24T00:57:37;99129.00;;;24.30
68012;BMP180;54794;48.348;7.878;2022-08-24T01:00:21;99128.00;;;24.30
68012;BMP180;54794;48.348;7.878;2022-08-24T01:02:54;99151.00;;;24.30
68012;BMP180;54794;48.348;7.878;2022-08-24T01:05:23;99144.00;;;24.30
68012;BMP180;54794;48.348;7.878;2022-08-24T01:07:50;99143.00;;;24.30
68012;BMP180;54794;48.348;7.878;2022-08-24T01:10:22;99147.00;;;24.20
68012;BMP180;54794;48.348;7.878;2022-08-24T01:12:58;99148.00;;;24.20
68012;BMP180;54794;48.348;7.878;2022-08-24T01:15:30;99137.00;;;24.20
68012;BMP180;54794;48.348;7.878;2022-08-24T01:18:00;99132.00;;;24.20
68012;BMP180;54794;48.348;7.878;2022-08-24T01:20:58;99138.00;;;24.10
68012;BMP180;54794;48.348;7.878;2022-08-24T01:23:41;99131.00;;;24.10
68012;BMP180;54794;48.348;7.878;2022-08-24T01:26:14;99132.00;;;24.00
68012;BMP180;54794;48.348;7.878;2022-08-24T01:28:48;99132.00;;;24.00
68012;BMP180;54794;48.348;7.878;2022-08-24T01:31:21;99133.00;;;24.00
68012;BMP180;54794;48.348;7.878;2022-08-24T01:33:53;99136.00;;;23.90
68012;BMP180;54794;48.348;7.878;2022-08-24T01:36:36;99127.00;;;23.90
68012;BMP180;54794;48.348;7.878;2022-08-24T01:39:15;99129.00;;;23.80
68012;BMP180;54794;48.348;7.878;2022-08-24T01:41:43;99119.00;;;23.80
68012;BMP180;54794;48.348;7.878;2022-08-24T01:44:11;99128.00;;;23.80
68012;BMP180;54794;48.348;7.878;2022-08-24T01:46:48;99134.00;;;23.80
68012;BMP180;54794;48.348;7.878;2022-08-24T01:49:16;99121.00;;;23.70
68012;BMP180;54794;48.348;7.878;2022-08-24T01:51:43;99126.00;;;23.70
68012;BMP180;54794;48.348;7.878;2022-08-24T01:54:13;99121.00;;;23.70
68012;BMP180;54794;48.348;7.878;2022-08-24T01:56:40;99134.00;;;23.70
68012;BMP180;54794;48.348;7.878;2022-08-24T01:59:07;99124.00;;;23.60
68012;BMP180;54794;48.348;7.878;2022-08-24T02:01:39;99130.00;;;23.60
68012;BMP180;54794;48.348;7.878;2022-08-24T02:04:08;99130.00;;;23.60
68012;BMP180;54794;48.348;7.878;2022-08-24T02:06:37;99115.00;;;23.60
68012;BMP180;54794;48.348;7.878;2022-08-24T02:09:05;99109.00;;;23.60
68012;BMP180;54794;48.348;7.878;2022-08-24T02:11:33;99113.00;;;23.50
68012;BMP180;54794;48.348;7.878;2022-08-24T02:14:00;99129.00;;;23.40
68012;BMP180;54794;48.348;7.878;2022-08-24T02:16:27;99135.00;;;23.50
68012;BMP180;54794;48.348;7.878;2022-08-24T02:18:54;99135.00;;;23.50
68012;BMP180;54794;48.348;7.878;2022-08-24T02:21:22;99121.00;;;23.40
68012;BMP180;54794;48.348;7.878;2022-08-24T02:23:50;99132.00;;;23.40
68012;BMP180;54794;48.348;7.878;2022-08-24T02:26:17;99137.00;;;23.40
68012;BMP180;54794;48.348;7.878;2022-08-24T02:28:44;99134.00;;;23.40
68012;BMP180;54794;48.348;7.878;2022-08-24T02:31:13;99124.00;;;23.30
68012;BMP180;54794;48.348;7.878;2022-08-24T02:33:41;99136.00;;;23.30
68012;BMP180;54794;48.348;7.878;2022-08-24T02:36:11;99137.00;;;23.30
68012;BMP180;54794;48.348;7.878;2022-08-24T02:38:53;99141.00;;;23.30
68012;BMP180;54794;48.348;7.878;2022-08-24T02:41:22;99139.00;;;23.30
68012;BMP180;54794;48.348;7.878;2022-08-24T02:43:54;99128.00;;;23.20
68012;BMP180;54794;48.348;7.878;2022-08-24T02:46:25;99135.00;;;23.20
68012;BMP180;54794;48.348;7.878;2022-08-24T02:48:53;99125.00;;;23.20
68012;BMP180;54794;48.348;7.878;2022-08-24T02:51:39;99137.00;;;23.10
68012;BMP180;54794;48.348;7.878;2022-08-24T02:54:12;99141.00;;;23.10
68012;BMP180;54794;48.348;7.878;2022-08-24T02:56:44;99140.00;;;23.00
68012;BMP180;54794;48.348;7.878;2022-08-24T02:59:11;99134.00;;;23.00
68012;BMP180;54794;48.348;7.878;2022-08-24T03:01:38;99141.00;;;23.00
68012;BMP180;54794;48.348;7.878;2022-08-24T03:04:05;99129.00;;;23.00
68012;BMP180;54794;48.348;7.878;2022-08-24T03:06:33;99131.00;;;22.90
68012;BMP180;54794;48.348;7.878;2022-08-24T03:09:00;99136.00;;;22.90
68012;BMP180;54794;48.348;7.878;2022-08-24T03:11:27;99136.00;;;22.90
68012;BMP180;54794;48.348;7.878;2022-08-24T03:13:55;99134.00;;;22.90
68012;BMP180;54794;48.348;7.878;2022-08-24T03:16:28;99130.00;;;22.80
68012;BMP180;54794;48.348;7.878;2022-08-24T03:18:55;99129.00;;;22.90
68012;BMP180;54794;48.348;7.878;2022-08-24T03:21:24;99131.00;;;22.80
68012;BMP180;54794;48.348;7.878;2022-08-24T03:23:51;99130.00;;;22.80
68012;BMP180;54794;48.348;7.878;2022-08-24T03:26:18;99130.00;;;22.80
68012;BMP180;54794;48.348;7.878;2022-08-24T03:28:46;99122.00;;;22.80
68012;BMP180;54794;48.348;7.878;2022-08-24T03:31:15;99125.00;;;22.70
68012;BMP180;54794;48.348;7.878;2022-08-24T03:33:42;99136.00;;;22.70
68012;BMP180;54794;48.348;7.878;2022-08-24T03:36:09;99115.00;;;22.70
68012;BMP180;54794;48.348;7.878;2022-08-24T03:38:40;99123.00;;;22.70
68012;BMP180;54794;48.348;7.878;2022-08-24T03:41:07;99109.00;;;22.60
68012;BMP180;54794;48.348;7.878;2022-08-24T03:43:36;99119.00;;;22.70
68012;BMP180;54794;48.348;7.878;2022-08-24T03:46:35;99127.00;;;22.60
68012;BMP180;54794;48.348;7.878;2022-08-24T03:49:07;99128.00;;;22.60
68012;BMP180;54794;48.348;7.878;2022-08-24T03:51:36;99118.00;;;22.60
68012;BMP180;54794;48.348;7.878;2022-08-24T03:54:07;99126.00;;;22.60
68012;BMP180;54794;48.348;7.878;2022-08-24T03:56:35;99126.00;;;22.60
68012;BMP180;54794;48.348;7.878;2022-08-24T03:59:02;99127.00;;;22.60
68012;BMP180;54794;48.348;7.878;2022-08-24T04:01:30;99129.00;;;22.60
68012;BMP180;54794;48.348;7.878;2022-08-24T04:03:58;99132.00;;;22.50
68012;BMP180;54794;48.348;7.878;2022-08-24T04:06:25;99129.00;;;22.50
68012;BMP180;54794;48.348;7.878;2022-08-24T04:08:53;99130.00;;;22.50
68012;BMP180;54794;48.348;7.878;2022-08-24T04:11:25;99136.00;;;22.50
68012;BMP180;54794;48.348;7.878;2022-08-24T04:13:55;99123.00;;;22.40
68012;BMP180;54794;48.348;7.878;2022-08-24T04:16:24;99147.00;;;22.40
68012;BMP180;54794;48.348;7.878;2022-08-24T04:18:51;99134.00;;;22.40
68012;BMP180;54794;48.348;7.878;2022-08-24T04:21:26;99140.00;;;22.40
68012;BMP180;54794;48.348;7.878;2022-08-24T04:23:55;99124.00;;;22.40
68012;BMP180;54794;48.348;7.878;2022-08-24T04:26:26;99141.00;;;22.40
68012;BMP180;54794;48.348;7.878;2022-08-24T04:29:11;99144.00;;;22.30
68012;BMP180;54794;48.348;7.878;2022-08-24T04:31:41;99149.00;;;22.30
68012;BMP180;54794;48.348;7.878;2022-08-24T04:34:10;99135.00;;;22.30
68012;BMP180;54794;48.348;7.878;2022-08-24T04:36:40;99147.00;;;22.20
68012;BMP180;54794;48.348;7.878;2022-08-24T04:39:08;99160.00;;;22.20
68012;BMP180;54794;48.348;7.878;2022-08-24T04:41:36;99148.00;;;22.20
68012;BMP180;54794;48.348;7.878;2022-08-24T04:44:03;99146.00;;;22.20
68012;BMP180;54794;48.348;7.878;2022-08-24T04:46:30;99152.00;;;22.20
68012;BMP180;54794;48.348;7.878;2022-08-24T04:48:57;99149.00;;;22.10
68012;BMP180;54794;48.348;7.878;2022-08-24T04:51:24;99144.00;;;22.10
68012;BMP180;54794;48.348;7.878;2022-08-24T04:53:51;99151.00;;;22.10
68012;BMP180;54794;48.348;7.878;2022-08-24T04:56:23;99160.00;;;22.10
68012;BMP180;54794;48.348;7.878;2022-08-24T04:58:52;99157.00;;;22.10
68012;BMP180;54794;48.348;7.878;2022-08-24T05:01:25;99164.00;;;22.10
68012;BMP180;54794;48.348;7.878;2022-08-24T05:03:54;99162.00;;;22.00
68012;BMP180;54794;48.348;7.878;2022-08-24T05:06:25;99151.00;;;22.00
68012;BMP180;54794;48.348;7.878;2022-08-24T05:08:54;99143.00;;;22.00
68012;BMP180;54794;48.348;7.878;2022-08-24T05:11:21;99159.00;;;22.00
68012;BMP180;54794;48.348;7.878;2022-08-24T05:13:53;99164.00;;;21.90
68012;BMP180;54794;48.348;7.878;2022-08-24T05:16:21;99146.00;;;22.00
68012;BMP180;54794;48.348;7.878;2022-08-24T05:18:50;99171.00;;;22.00
68012;BMP180;54794;48.348;7.878;2022-08-24T05:21:21;99172.00;;;22.10
68012;BMP180;54794;48.348;7.878;2022-08-24T05:23:49;99167.00;;;22.10
68012;BMP180;54794;48.348;7.878;2022-08-24T05:26:23;99173.00;;;22.20
68012;BMP180;54794;48.348;7.878;2022-08-24T05:28:58;99168.00;;;22.20
68012;BMP180;54794;48.348;7.878;2022-08-24T05:31:29;99165.00;;;22.20
68012;BMP180;54794;48.348;7.878;2022-08-24T05:33:59;99180.00;;;22.30
68012;BMP180;54794;48.348;7.878;2022-08-24T05:36:33;99180.00;;;22.30
68012;BMP180;54794;48.348;7.878;2022-08-24T05:39:05;99178.00;;;22.30
68012;BMP180;54794;48.348;7.878;2022-08-24T05:41:41;99169.00;;;22.40
68012;BMP180;54794;48.348;7.878;2022-08-24T05:44:12;99171.00;;;22.40
68012;BMP180;54794;48.348;7.878;2022-08-24T05:46:40;99177.00;;;22.40
68012;BMP180;54794;48.348;7.878;2022-08-24T05:49:07;99170.00;;;22.30
68012;BMP180;54794;48.348;7.878;2022-08-24T05:51:35;99172.00;;;22.50
68012;BMP180;54794;48.348;7.878;2022-08-24T05:54:03;99180.00;;;22.50
68012;BMP180;54794;48.348;7.878;2022-08-24T05:56:30;99184.00;;;22.60
68012;BMP180;54794;48.348;7.878;2022-08-24T05:58:58;99165.00;;;22.60
68012;BMP180;54794;48.348;7.878;2022-08-24T06:01:26;99179.00;;;22.70
68012;BMP180;54794;48.348;7.878;2022-08-24T06:03:55;99163.00;;;22.80
68012;BMP180;54794;48.348;7.878;2022-08-24T06:06:23;99183.00;;;22.80
68012;BMP180;54794;48.348;7.878;2022-08-24T06:08:56;99178.00;;;22.90
68012;BMP180;54794;48.348;7.878;2022-08-24T06:11:37;99174.00;;;23.00
68012;BMP180;54794;48.348;7.878;2022-08-24T06:14:12;99183.00;;;23.00
68012;BMP180;54794;48.348;7.878;2022-08-24T06:16:43;99178.00;;;23.10
68012;BMP180;54794;48.348;7.878;2022-08-24T06:19:14;99185.00;;;23.10
68012;BMP180;54794;48.348;7.878;2022-08-24T06:21:48;99179.00;;;23.20
68012;BMP180;54794;48.348;7.878;2022-08-24T06:24:45;99169.00;;;23.20
68012;BMP180;54794;48.348;7.878;2022-08-24T06:27:30;99177.00;;;23.30
68012;BMP180;54794;48.348;7.878;2022-08-24T06:30:03;99184.00;;;23.30
68012;BMP180;54794;48.348;7.878;2022-08-24T06:32:30;99179.00;;;23.40
68012;BMP180;54794;48.348;7.878;2022-08-24T06:34:57;99186.00;;;23.40
68012;BMP180;54794;48.348;7.878;2022-08-24T06:37:25;99183.00;;;23.50
68012;BMP180;54794;48.348;7.878;2022-08-24T06:39:56;99191.00;;;23.60
68012;BMP180;54794;48.348;7.878;2022-08-24T06:42:24;99186.00;;;23.70
68012;BMP180;54794;48.348;7.878;2022-08-24T06:44:51;99197.00;;;23.70
68012;BMP180;54794;48.348;7.878;2022-08-24T06:47:18;99183.00;;;23.80
68012;BMP180;54794;48.348;7.878;2022-08-24T06:49:45;99189.00;;;23.90
68012;BMP180;54794;48.348;7.878;2022-08-24T06:52:12;99197.00;;;24.00
68012;BMP180;54794;48.348;7.878;2022-08-24T06:54:39;99197.00;;;24.10
68012;BMP180;54794;48.348;7.878;2022-08-24T06:57:06;99196.00;;;24.10
68012;BMP180;54794;48.348;7.878;2022-08-24T06:59:33;99205.00;;;24.20
68012;BMP180;54794;48.348;7.878;2022-08-24T07:02:00;99196.00;;;24.30
68012;BMP180;54794;48.348;7.878;2022-08-24T07:04:27;99207.00;;;24.50
68012;BMP180;54794;48.348;7.878;2022-08-24T07:06:55;99213.00;;;24.50
68012;BMP180;54794;48.348;7.878;2022-08-24T07:09:22;99203.00;;;24.60
68012;BMP180;54794;48.348;7.878;2022-08-24T07:11:52;99202.00;;;24.70
68012;BMP180;54794;48.348;7.878;2022-08-24T07:14:19;99210.00;;;24.80
68012;BMP180;54794;48.348;7.878;2022-08-24T07:16:47;99212.00;;;24.90
68012;BMP180;54794;48.348;7.878;2022-08-24T07:19:14;99221.00;;;25.00
68012;BMP180;54794;48.348;7.878;2022-08-24T07:21:41;99223.00;;;25.10
68012;BMP180;54794;48.348;7.878;2022-08-24T07:24:08;99218.00;;;25.20
68012;BMP180;54794;48.348;7.878;2022-08-24T07:26:38;99221.00;;;25.30
68012;BMP180;54794;48.348;7.878;2022-08-24T07:29:12;99220.00;;;25.40
68012;BMP180;54794;48.348;7.878;2022-08-24T07:32:00;99219.00;;;25.50
68012;BMP180;54794;48.348;7.878;2022-08-24T07:34:27;99223.00;;;25.60
68012;BMP180;54794;48.348;7.878;2022-08-24T07:36:55;99222.00;;;25.80
68012;BMP180;54794;48.348;7.878;2022-08-24T07:39:22;99232.00;;;25.90
68012;BMP180;54794;48.348;7.878;2022-08-24T07:41:49;99223.00;;;26.00
68012;BMP180;54794;48.348;7.878;2022-08-24T07:44:37;99227.00;;;26.10
68012;BMP180;54794;48.348;7.878;2022-08-24T07:47:04;99222.00;;;26.20
68012;BMP180;54794;48.348;7.878;2022-08-24T07:49:51;99234.00;;;26.30
68012;BMP180;54794;48.348;7.878;2022-08-24T07:52:18;99219.00;;;26.50
68012;BMP180;54794;48.348;7.878;2022-08-24T07:54:45;99218.00;;;26.60
68012;BMP180;54794;48.348;7.878;2022-08-24T07:57:12;99225.00;;;26.70
68012;BMP180;54794;48.348;7.878;2022-08-24T07:59:39;99225.00;;;26.80
68012;BMP180;54794;48.348;7.878;2022-08-24T08:02:07;99231.00;;;26.90
68012;BMP180;54794;48.348;7.878;2022-08-24T08:04:36;99227.00;;;27.00
68012;BMP180;54794;48.348;7.878;2022-08-24T08:07:03;99227.00;;;27.20
68012;BMP180;54794;48.348;7.878;2022-08-24T08:09:36;99229.00;;;27.30
68012;BMP180;54794;48.348;7.878;2022-08-24T08:12:03;99229.00;;;27.40
68012;BMP180;54794;48.348;7.878;2022-08-24T08:14:30;99230.00;;;27.50
68012;BMP180;54794;48.348;7.878;2022-08-24T08:16:57;99227.00;;;27.60
68012;BMP180;54794;48.348;7.878;2022-08-24T08:19:25;99235.00;;;27.70
68012;BMP180;54794;48.348;7.878;2022-08-24T08:21:53;99227.00;;;27.80
68012;BMP180;54794;48.348;7.878;2022-08-24T08:24:40;99231.00;;;27.90
68012;BMP180;54794;48.348;7.878;2022-08-24T08:27:12;99228.00;;;28.00
68012;BMP180;54794;48.348;7.878;2022-08-24T08:29:43;99228.00;;;28.10
68012;BMP180;54794;48.348;7.878;2022-08-24T08:32:11;99221.00;;;28.20
68012;BMP180;54794;48.348;7.878;2022-08-24T08:34:43;99237.00;;;28.30
68012;BMP180;54794;48.348;7.878;2022-08-24T08:37:11;99229.00;;;28.40
68012;BMP180;54794;48.348;7.878;2022-08-24T08:39:39;99230.00;;;28.50
68012;BMP180;54794;48.348;7.878;2022-08-24T08:45:29;99228.00;;;28.70
68012;BMP180;54794;48.348;7.878;2022-08-24T08:57:50;99229.00;;;29.20
68012;BMP180;54794;48.348;7.878;2022-08-24T09:00:44;99221.00;;;29.30
68012;BMP180;54794;48.348;7.878;2022-08-24T09:03:24;99227.00;;;29.40
68012;BMP180;54794;48.348;7.878;2022-08-24T09:06:11;99226.00;;;29.50
68012;BMP180;54794;48.348;7.878;2022-08-24T09:15:19;99221.00;;;29.80
68012;BMP180;54794;48.348;7.878;2022-08-24T09:18:09;99225.00;;;29.90
68012;BMP180;54794;48.348;7.878;2022-08-24T09:27:05;99214.00;;;30.20
68012;BMP180;54794;48.348;7.878;2022-08-24T09:41:24;99212.00;;;30.70
68012;BMP180;54794;48.348;7.878;2022-08-24T10:02:58;99200.00;;;31.50
68012;BMP180;54794;48.348;7.878;2022-08-24T10:05:52;99200.00;;;31.70
68012;BMP180;54794;48.348;7.878;2022-08-24T10:35:31;99168.00;;;32.50
68012;BMP180;54794;48.348;7.878;2022-08-24T10:38:29;99171.00;;;32.60
68012;BMP180;54794;48.348;7.878;2022-08-24T10:51:28;99150.00;;;32.90
68012;BMP180;54794;48.348;7.878;2022-08-24T10:54:02;99149.00;;;33.00
68012;BMP180;54794;48.348;7.878;2022-08-24T11:02:36;99144.00;;;33.30
68012;BMP180;54794;48.348;7.878;2022-08-24T11:05:14;99142.00;;;33.40
68012;BMP180;54794;48.348;7.878;2022-08-24T11:08:04;99141.00;;;33.40
68012;BMP180;54794;48.348;7.878;2022-08-24T11:10:37;99139.00;;;33.50
68012;BMP180;54794;48.348;7.878;2022-08-24T11:15:56;99146.00;;;33.70
68012;BMP180;54794;48.348;7.878;2022-08-24T11:18:23;99143.00;;;33.80
68012;BMP180;54794;48.348;7.878;2022-08-24T11:20:54;99133.00;;;33.80
68012;BMP180;54794;48.348;7.878;2022-08-24T11:23:27;99141.00;;;33.90
68012;BMP180;54794;48.348;7.878;2022-08-24T11:26:02;99117.00;;;34.00
68012;BMP180;54794;48.348;7.878;2022-08-24T11:28:43;99134.00;;;34.10
68012;BMP180;54794;48.348;7.878;2022-08-24T11:31:31;99128.00;;;34.20
68012;BMP180;54794;48.348;7.878;2022-08-24T11:34:12;99131.00;;;34.20
68012;BMP180;54794;48.348;7.878;2022-08-24T11:36:40;99124.00;;;34.30
68012;BMP180;54794;48.348;7.878;2022-08-24T11:39:31;99127.00;;;34.40
68012;BMP180;54794;48.348;7.878;2022-08-24T11:45:44;99129.00;;;34.50
68012;BMP180;54794;48.348;7.878;2022-08-24T11:57:10;99118.00;;;34.90
68012;BMP180;54794;48.348;7.878;2022-08-24T12:03:00;99114.00;;;35.10
68012;BMP180;54794;48.348;7.878;2022-08-24T12:05:54;99107.00;;;35.20
68012;BMP180;54794;48.348;7.878;2022-08-24T12:16:55;99096.00;;;35.70
68012;BMP180;54794;48.348;7.878;2022-08-24T12:19:35;99080.00;;;35.80
68012;BMP180;54794;48.348;7.878;2022-08-24T12:22:06;99098.00;;;35.90
68012;BMP180;54794;48.348;7.878;2022-08-24T12:24:43;99094.00;;;36.10
68012;BMP180;54794;48.348;7.878;2022-08-24T12:27:34;99098.00;;;36.20
68012;BMP180;54794;48.348;7.878;2022-08-24T12:30:15;99103.00;;;36.40
68012;BMP180;54794;48.348;7.878;2022-08-24T12:33:04;99090.00;;;36.50
68012;BMP180;54794;48.348;7.878;2022-08-24T12:35:47;99096.00;;;36.70
68012;BMP180;54794;48.348;7.878;2022-08-24T12:38:33;99094.00;;;36.80
68012;BMP180;54794;48.348;7.878;2022-08-24T12:41:25;99095.00;;;36.90
68012;BMP180;54794;48.348;7.878;2022-08-24T12:44:03;99093.00;;;37.00
68012;BMP180;54794;48.348;7.878;2022-08-24T12:46:35;99089.00;;;37.10
68012;BMP180;54794;48.348;7.878;2022-08-24T12:49:07;99081.00;;;37.30
68012;BMP180;54794;48.348;7.878;2022-08-24T12:52:12;99086.00;;;37.40
68012;BMP180;54794;48.348;7.878;2022-08-24T12:55:15;99086.00;;;37.40
68012;BMP180;54794;48.348;7.878;2022-08-24T13:00:35;99093.00;;;37.70
68012;BMP180;54794;48.348;7.878;2022-08-24T13:03:07;99082.00;;;37.80
68012;BMP180;54794;48.348;7.878;2022-08-24T13:05:55;99091.00;;;37.90
68012;BMP180;54794;48.348;7.878;2022-08-24T13:08:38;99082.00;;;38.00
68012;BMP180;54794;48.348;7.878;2022-08-24T13:11:32;99080.00;;;38.10
68012;BMP180;54794;48.348;7.878;2022-08-24T13:25:25;99064.00;;;38.50
68012;BMP180;54794;48.348;7.878;2022-08-24T13:28:07;99065.00;;;38.60
68012;BMP180;54794;48.348;7.878;2022-08-24T13:33:38;99064.00;;;38.70
68012;BMP180;54794;48.348;7.878;2022-08-24T13:39:48;99071.00;;;38.80
68012;BMP180;54794;48.348;7.878;2022-08-24T13:57:37;99051.00;;;39.10
68012;BMP180;54794;48.348;7.878;2022-08-24T14:16:55;99034.00;;;39.60
68012;BMP180;54794;48.348;7.878;2022-08-24T14:20:18;99040.00;;;39.50
68012;BMP180;54794;48.348;7.878;2022-08-24T14:25:44;99041.00;;;39.60
68012;BMP180;54794;48.348;7.878;2022-08-24T14:28:39;99040.00;;;39.60
68012;BMP180;54794;48.348;7.878;2022-08-24T14:31:24;99049.00;;;39.60
68012;BMP180;54794;48.348;7.878;2022-08-24T14:34:27;99049.00;;;39.70
68012;BMP180;54794;48.348;7.878;2022-08-24T14:39:56;99030.00;;;39.80
68012;BMP180;54794;48.348;7.878;2022-08-24T14:42:39;99036.00;;;39.80
68012;BMP180;54794;48.348;7.878;2022-08-24T14:45:46;99033.00;;;39.80
68012;BMP180;54794;48.348;7.878;2022-08-24T14:48:36;99037.00;;;39.70
68012;BMP180;54794;48.348;7.878;2022-08-24T14:51:49;99039.00;;;39.60
68012;BMP180;54794;48.348;7.878;2022-08-24T15:00:20;99034.00;;;39.30
68012;BMP180;54794;48.348;7.878;2022-08-24T15:08:01;99028.00;;;39.10
68012;BMP180;54794;48.348;7.878;2022-08-24T15:13:58;99027.00;;;39.00
68012;BMP180;54794;48.348;7.878;2022-08-24T15:16:51;99035.00;;;39.00
68012;BMP180;54794;48.348;7.878;2022-08-24T15:19:57;99031.00;;;39.00
68012;BMP180;54794;48.348;7.878;2022-08-24T15:22:50;99026.00;;;38.90
68012;BMP180;54794;48.348;7.878;2022-08-24T15:33:28;99033.00;;;38.70
68012;BMP180;54794;48.348;7.878;2022-08-24T15:36:14;99025.00;;;38.60
68012;BMP180;54794;48.348;7.878;2022-08-24T15:38:43;99020.00;;;38.60
68012;BMP180;54794;48.348;7.878;2022-08-24T15:41:39;99018.00;;;38.50
68012;BMP180;54794;48.348;7.878;2022-08-24T15:44:27;99020.00;;;38.50
68012;BMP180;54794;48.348;7.878;2022-08-24T15:47:00;99011.00;;;38.50
68012;BMP180;54794;48.348;7.878;2022-08-24T15:49:36;99008.00;;;38.40
68012;BMP180;54794;48.348;7.878;2022-08-24T15:55:05;99019.00;;;38.30
68012;BMP180;54794;48.348;7.878;2022-08-24T15:57:38;99020.00;;;38.30
68012;BMP180;54794;48.348;7.878;2022-08-24T16:00:20;99018.00;;;38.30
68012;BMP180;54794;48.348;7.878;2022-08-24T16:03:49;99021.00;;;38.30
68012;BMP180;54794;48.348;7.878;2022-08-24T16:06:45;99012.00;;;38.20
68012;BMP180;54794;48.348;7.878;2022-08-24T16:12:13;99026.00;;;38.10
68012;BMP180;54794;48.348;7.878;2022-08-24T16:14:49;99023.00;;;38.00
68012;BMP180;54794;48.348;7.878;2022-08-24T16:19:58;99029.00;;;37.90
68012;BMP180;54794;48.348;7.878;2022-08-24T16:22:51;99025.00;;;37.90
68012;BMP180;54794;48.348;7.878;2022-08-24T16:25:39;99028.00;;;37.90
68012;BMP180;54794;48.348;7.878;2022-08-24T16:31:01;99022.00;;;37.80
68012;BMP180;54794;48.348;7.878;2022-08-24T16:36:18;99023.00;;;37.60
68012;BMP180;54794;48.348;7.878;2022-08-24T16:38:49;99018.00;;;37.50
68012;BMP180;54794;48.348;7.878;2022-08-24T16:41:20;99022.00;;;37.50
68012;BMP180;54794;48.348;7.878;2022-08-24T16:43:48;99026.00;;;37.50
68012;BMP180;54794;48.348;7.878;2022-08-24T16:46:22;99025.00;;;37.40
68012;BMP180;54794;48.348;7.878;2022-08-24T16:48:49;99019.00;;;37.30
68012;BMP180;54794;48.348;7.878;2022-08-24T16:51:17;99018.00;;;37.30
68012;BMP180;54794;48.348;7.878;2022-08-24T16:53:44;99019.00;;;37.10
68012;BMP180;54794;48.348;7.878;2022-08-24T16:56:11;99018.00;;;37.10
68012;BMP180;54794;48.348;7.878;2022-08-24T16:58:45;99023.00;;;37.00
68012;BMP180;54794;48.348;7.878;2022-08-24T17:01:13;99025.00;;;36.90
68012;BMP180;54794;48.348;7.878;2022-08-24T17:03:41;99027.00;;;36.80
68012;BMP180;54794;48.348;7.878;2022-08-24T17:06:09;99013.00;;;36.70
68012;BMP180;54794;48.348;7.878;2022-08-24T17:08:40;99031.00;;;36.60
68012;BMP180;54794;48.348;7.878;2022-08-24T17:11:07;99027.00;;;36.50
68012;BMP180;54794;48.348;7.878;2022-08-24T17:13:34;99023.00;;;36.30
68012;BMP180;54794;48.348;7.878;2022-08-24T17:16:18;99014.00;;;36.30
68012;BMP180;54794;48.348;7.878;2022-08-24T17:18:46;99027.00;;;36.20
68012;BMP180;54794;48.348;7.878;2022-08-24T17:21:14;99025.00;;;36.10
68012;BMP180;54794;48.348;7.878;2022-08-24T17:23:41;99024.00;;;36.00
68012;BMP180;54794;48.348;7.878;2022-08-24T17:26:12;99033.00;;;35.90
68012;BMP180;54794;48.348;7.878;2022-08-24T17:28:48;99029.00;;;35.70
68012;BMP180;54794;48.348;7.878;2022-08-24T17:31:15;99023.00;;;35.60
68012;BMP180;54794;48.348;7.878;2022-08-24T17:33:43;99027.00;;;35.50
68012;BMP180;54794;48.348;7.878;2022-08-24T17:36:23;99025.00;;;35.30
68012;BMP180;54794;48.348;7.878;2022-08-24T17:38:58;99035.00;;;35.30
68012;BMP180;54794;48.348;7.878;2022-08-24T17:41:26;99033.00;;;35.30
68012;BMP180;54794;48.348;7.878;2022-08-24T17:43:54;99033.00;;;35.20
68012;BMP180;54794;48.348;7.878;2022-08-24T17:46:21;99031.00;;;35.10
68012;BMP180;54794;48.348;7.878;2022-08-24T17:48:50;99031.00;;;35.00
68012;BMP180;54794;48.348;7.878;2022-08-24T17:51:18;99032.00;;;34.90
68012;BMP180;54794;48.348;7.878;2022-08-24T17:53:45;99043.00;;;34.80
68012;BMP180;54794;48.348;7.878;2022-08-24T17:56:13;99050.00;;;34.80
68012;BMP180;54794;48.348;7.878;2022-08-24T17:58:42;99053.00;;;34.70
68012;BMP180;54794;48.348;7.878;2022-08-24T18:01:29;99053.00;;;34.60
68012;BMP180;54794;48.348;7.878;2022-08-24T18:03:56;99047.00;;;34.50
68012;BMP180;54794;48.348;7.878;2022-08-24T18:06:26;99043.00;;;34.40
68012;BMP180;54794;48.348;7.878;2022-08-24T18:08:54;99050.00;;;34.30
68012;BMP180;54794;48.348;7.878;2022-08-24T18:11:23;99058.00;;;34.20
68012;BMP180;54794;48.348;7.878;2022-08-24T18:13:52;99041.00;;;34.10
68012;BMP180;54794;48.348;7.878;2022-08-24T18:16:23;99057.00;;;34.00
68012;BMP180;54794;48.348;7.878;2022-08-24T18:18:51;99052.00;;;33.90
68012;BMP180;54794;48.348;7.878;2022-08-24T18:21:20;99042.00;;;33.90
68012;BMP180;54794;48.348;7.878;2022-08-24T18:23:49;99053.00;;;33.80
68012;BMP180;54794;48.348;7.878;2022-08-24T18:26:28;99053.00;;;33.70
68012;BMP180;54794;48.348;7.878;2022-08-24T18:29:04;99067.00;;;33.60
68012;BMP180;54794;48.348;7.878;2022-08-24T18:31:34;99050.00;;;33.50